Time;durP1;ratioP1;P1;durP2;ratioP2;P2;SDS_P1;SDS_P2;PMS_P1;PMS_P2;Temp;Humidity;BMP_temperature;BMP_pressure;BME280_temperature;BME280_humidity;BME280_pressure;Samples;Min_cycle;Max_cycle;Signal;HPM_P1;HPM_P2
2023/04/03 00:00:24;;;;;;;12.40;6.03;;;;;;;;;;5007395;28;20548;-70
2023/04/03 00:02:50;;;;;;;11.52;5.97;;;;;;;;;;5007318;28;20048;-70
2023/04/03 00:05:15;;;;;;;12.63;6.05;;;;;;;;;;5003950;28;20034;-70
2023/04/03 00:07:40;;;;;;;13.35;5.88;;;;;;;;;;5007653;28;20033;-70
2023/04/03 00:10:06;;;;;;;11.52;5.93;;;;;;;;;;5005825;28;20783;-70
2023/04/03 00:12:31;;;;;;;11.07;5.53;;;;;;;;;;5006626;28;20033;-70
2023/04/03 00:14:57;;;;;;;14.57;5.75;;;;;;;;;;5007354;28;20516;-70
2023/04/03 00:17:22;;;;;;;12.95;5.65;;;;;;;;;;5006975;28;20716;-70
2023/04/03 00:19:47;;;;;;;10.77;6.03;;;;;;;;;;5006988;28;20026;-70
2023/04/03 00:22:13;;;;;;;13.20;6.32;;;;;;;;;;5006595;28;20024;-70
2023/04/03 00:24:38;;;;;;;11.55;6.28;;;;;;;;;;5007298;28;20111;-70
2023/04/03 00:27:03;;;;;;;14.05;5.75;;;;;;;;;;5005981;28;20032;-70
2023/04/03 00:29:29;;;;;;;10.32;5.60;;;;;;;;;;5007162;28;20094;-70
2023/04/03 00:31:54;;;;;;;10.30;5.47;;;;;;;;;;5003785;28;20057;-70
2023/04/03 00:34:19;;;;;;;15.30;6.50;;;;;;;;;;5001615;28;20122;-70
2023/04/03 00:36:45;;;;;;;7.43;4.70;;;;;;;;;;4988661;28;20025;-70
2023/04/03 00:39:10;;;;;;;12.18;5.00;;;;;;;;;;4990445;28;20046;-70
2023/04/03 00:41:35;;;;;;;10.60;5.57;;;;;;;;;;5009076;28;20068;-70
2023/04/03 00:44:16;;;;;;;10.88;5.53;;;;;;;;;;5006129;28;20121;-70
2023/04/03 00:46:42;;;;;;;9.35;5.03;;;;;;;;;;5007599;28;20030;-70
2023/04/03 00:49:07;;;;;;;16.83;5.95;;;;;;;;;;5017496;28;20031;-70
2023/04/03 00:51:33;;;;;;;11.18;5.07;;;;;;;;;;5026679;28;20630;-70
2023/04/03 00:54:02;;;;;;;12.45;6.10;;;;;;;;;;5007670;28;20034;-70
2023/04/03 00:56:29;;;;;;;17.08;6.50;;;;;;;;;;5006060;28;20402;-70
2023/04/03 00:59:03;;;;;;;16.48;6.45;;;;;;;;;;5007052;28;20096;-69
2023/04/03 01:01:29;;;;;;;13.68;6.35;;;;;;;;;;5006481;28;20110;-70
2023/04/03 01:03:55;;;;;;;14.40;5.88;;;;;;;;;;5006936;28;20610;-70
2023/04/03 01:06:26;;;;;;;15.02;6.95;;;;;;;;;;5012801;28;20037;-70
2023/04/03 01:08:52;;;;;;;13.18;6.05;;;;;;;;;;5005018;28;20072;-70
2023/04/03 01:11:17;;;;;;;10.23;4.95;;;;;;;;;;4997216;28;20524;-70
2023/04/03 01:13:43;;;;;;;12.18;6.07;;;;;;;;;;5006313;28;20040;-70
2023/04/03 01:16:08;;;;;;;11.27;5.50;;;;;;;;;;5005312;28;20091;-70
2023/04/03 01:18:37;;;;;;;12.07;5.88;;;;;;;;;;5004170;28;20038;-70
2023/04/03 01:21:30;;;;;;;12.50;5.88;;;;;;;;;;5006090;28;20066;-70
2023/04/03 01:24:05;;;;;;;12.23;5.95;;;;;;;;;;5001536;28;20030;-70
2023/04/03 01:26:31;;;;;;;13.45;6.57;;;;;;;;;;4998181;28;20049;-70
2023/04/03 01:28:59;;;;;;;13.07;6.30;;;;;;;;;;5024930;28;20033;-70
2023/04/03 01:31:49;;;;;;;11.35;5.72;;;;;;;;;;5009750;28;20027;-69
2023/04/03 01:34:14;;;;;;;11.88;6.22;;;;;;;;;;4986098;28;20066;-69
2023/04/03 01:36:40;;;;;;;13.15;6.00;;;;;;;;;;4986007;28;20034;-70
2023/04/03 01:39:05;;;;;;;13.63;6.72;;;;;;;;;;4985418;28;20449;-70
2023/04/03 01:41:31;;;;;;;10.48;6.10;;;;;;;;;;4985714;28;20042;-70
2023/04/03 01:43:56;;;;;;;15.10;6.53;;;;;;;;;;4985782;28;20034;-69
2023/04/03 01:46:22;;;;;;;11.65;6.20;;;;;;;;;;4985676;28;20034;-69
2023/04/03 01:48:48;;;;;;;10.32;5.80;;;;;;;;;;4984697;28;20023;-70
2023/04/03 01:51:14;;;;;;;13.30;5.82;;;;;;;;;;4989566;28;20270;-70
2023/04/03 01:53:39;;;;;;;10.10;5.75;;;;;;;;;;5005573;28;20686;-70
2023/04/03 01:56:05;;;;;;;12.82;6.43;;;;;;;;;;5005477;28;20041;-70
2023/04/03 01:58:31;;;;;;;11.43;5.82;;;;;;;;;;5001278;28;20428;-69
2023/04/03 02:00:56;;;;;;;8.95;5.38;;;;;;;;;;5018226;28;20497;-69
2023/04/03 02:03:22;;;;;;;12.75;6.25;;;;;;;;;;5025622;28;20107;-70
2023/04/03 02:05:47;;;;;;;13.93;6.53;;;;;;;;;;5005312;28;20581;-70
2023/04/03 02:08:13;;;;;;;15.90;6.57;;;;;;;;;;5010733;28;20041;-70
2023/04/03 02:10:39;;;;;;;13.40;6.10;;;;;;;;;;5002748;28;20449;-70
2023/04/03 02:13:04;;;;;;;13.45;5.68;;;;;;;;;;5005875;28;20036;-70
2023/04/03 02:15:30;;;;;;;16.55;6.95;;;;;;;;;;4990612;28;20073;-70
2023/04/03 02:17:55;;;;;;;15.45;6.88;;;;;;;;;;4985148;28;20080;-70
2023/04/03 02:20:21;;;;;;;15.10;6.72;;;;;;;;;;4985678;28;20554;-70
2023/04/03 02:22:46;;;;;;;13.77;5.22;;;;;;;;;;4985636;28;20454;-70
2023/04/03 02:25:12;;;;;;;13.32;5.78;;;;;;;;;;5010508;28;20113;-70
2023/04/03 02:27:38;;;;;;;12.27;5.95;;;;;;;;;;5004371;28;20041;-70
2023/04/03 02:30:05;;;;;;;11.75;5.15;;;;;;;;;;5006948;28;20026;-70
2023/04/03 02:32:30;;;;;;;11.10;5.82;;;;;;;;;;5002910;28;20050;-70
2023/04/03 02:34:56;;;;;;;12.05;5.97;;;;;;;;;;5002687;28;20056;-70
2023/04/03 02:37:21;;;;;;;13.88;6.63;;;;;;;;;;5004490;28;20029;-70
2023/04/03 02:39:47;;;;;;;13.02;6.90;;;;;;;;;;5003636;28;20076;-70
2023/04/03 02:42:12;;;;;;;11.18;6.82;;;;;;;;;;5003459;28;20037;-70
2023/04/03 02:44:38;;;;;;;14.10;6.57;;;;;;;;;;5003447;28;20034;-70
2023/04/03 02:47:04;;;;;;;12.50;5.72;;;;;;;;;;5002781;28;20121;-70
2023/04/03 02:49:29;;;;;;;12.07;6.10;;;;;;;;;;5001139;28;20117;-70
2023/04/03 02:51:54;;;;;;;14.35;7.30;;;;;;;;;;5004623;28;20627;-70
2023/04/03 02:54:20;;;;;;;12.25;6.43;;;;;;;;;;5005305;28;20080;-70
2023/04/03 02:56:46;;;;;;;12.27;5.57;;;;;;;;;;5008207;28;20096;-70
2023/04/03 02:59:11;;;;;;;14.57;5.40;;;;;;;;;;5004338;28;20025;-70
2023/04/03 03:01:36;;;;;;;12.38;6.18;;;;;;;;;;5003944;28;20033;-70
2023/04/03 03:04:02;;;;;;;13.32;6.13;;;;;;;;;;5004801;28;20034;-70
2023/04/03 03:06:27;;;;;;;15.63;6.68;;;;;;;;;;5003596;28;20038;-70
2023/04/03 03:08:53;;;;;;;11.38;5.18;;;;;;;;;;5004121;28;20026;-70
2023/04/03 03:11:18;;;;;;;11.05;5.38;;;;;;;;;;5001608;28;20037;-70
2023/04/03 03:13:44;;;;;;;10.80;5.30;;;;;;;;;;5005900;28;20226;-70
2023/04/03 03:16:09;;;;;;;10.55;5.18;;;;;;;;;;5002381;28;20026;-70
2023/04/03 03:18:35;;;;;;;13.07;5.78;;;;;;;;;;5004320;28;20126;-70
2023/04/03 03:21:02;;;;;;;11.18;5.65;;;;;;;;;;5004615;28;20034;-70
2023/04/03 03:23:29;;;;;;;10.13;5.13;;;;;;;;;;5004360;28;20079;-70
2023/04/03 03:26:01;;;;;;;11.35;5.85;;;;;;;;;;5004140;28;20046;-70
2023/04/03 03:28:26;;;;;;;12.77;5.50;;;;;;;;;;5006319;28;20053;-70
2023/04/03 03:30:52;;;;;;;12.68;5.38;;;;;;;;;;5003131;28;20057;-70
2023/04/03 03:33:18;;;;;;;13.65;5.47;;;;;;;;;;4993351;28;20054;-70
2023/04/03 03:35:44;;;;;;;14.35;5.72;;;;;;;;;;5021775;28;20250;-70
2023/04/03 03:38:10;;;;;;;11.50;5.85;;;;;;;;;;5008709;28;20034;-70
2023/04/03 03:40:35;;;;;;;12.05;5.45;;;;;;;;;;5007011;28;20112;-70
2023/04/03 03:43:00;;;;;;;12.48;6.53;;;;;;;;;;5009309;28;20507;-71
2023/04/03 03:45:26;;;;;;;13.50;5.55;;;;;;;;;;5002748;28;20585;-70
2023/04/03 03:47:51;;;;;;;10.48;5.45;;;;;;;;;;4988106;28;20035;-71
2023/04/03 03:50:17;;;;;;;10.07;5.20;;;;;;;;;;4996752;28;20042;-70
2023/04/03 03:52:42;;;;;;;10.27;5.22;;;;;;;;;;5013149;28;20036;-71
2023/04/03 03:55:08;;;;;;;10.10;5.85;;;;;;;;;;5007530;28;20045;-71
2023/04/03 03:57:33;;;;;;;13.48;5.32;;;;;;;;;;5007772;28;20040;-71
2023/04/03 03:59:58;;;;;;;8.95;4.20;;;;;;;;;;4994103;28;20032;-71
2023/04/03 04:02:24;;;;;;;9.07;4.95;;;;;;;;;;5007494;28;20038;-71
2023/04/03 04:04:50;;;;;;;10.65;4.80;;;;;;;;;;5007848;28;20061;-71
2023/04/03 04:07:16;;;;;;;13.13;5.60;;;;;;;;;;5006354;28;20108;-71
2023/04/03 04:09:41;;;;;;;11.50;5.20;;;;;;;;;;4995978;28;20042;-71
2023/04/03 04:12:06;;;;;;;12.80;5.30;;;;;;;;;;4986991;28;20034;-71
2023/04/03 04:14:32;;;;;;;14.23;6.18;;;;;;;;;;4987111;28;20387;-71
2023/04/03 04:16:57;;;;;;;13.68;5.85;;;;;;;;;;4987759;28;20037;-71
2023/04/03 04:19:22;;;;;;;12.02;5.75;;;;;;;;;;4987438;28;20571;-71
2023/04/03 04:21:47;;;;;;;11.10;5.00;;;;;;;;;;5001344;28;20083;-70
2023/04/03 04:24:13;;;;;;;13.30;4.82;;;;;;;;;;5007266;28;20038;-71
2023/04/03 04:26:38;;;;;;;10.88;5.00;;;;;;;;;;5000670;28;20096;-71
2023/04/03 04:29:03;;;;;;;11.60;5.97;;;;;;;;;;5007004;28;20061;-71
2023/04/03 04:31:29;;;;;;;13.10;5.22;;;;;;;;;;5006742;28;20029;-71
2023/04/03 04:33:54;;;;;;;13.90;5.13;;;;;;;;;;5008402;28;20079;-71
2023/04/03 04:36:20;;;;;;;12.75;4.95;;;;;;;;;;5009075;28;20034;-71
2023/04/03 04:38:45;;;;;;;15.45;6.03;;;;;;;;;;5005618;28;20034;-70
2023/04/03 04:41:10;;;;;;;14.95;7.38;;;;;;;;;;5006206;28;20081;-71
2023/04/03 04:43:36;;;;;;;16.73;6.97;;;;;;;;;;5014076;28;20033;-71
2023/04/03 04:46:07;;;;;;;18.25;7.47;;;;;;;;;;5013682;28;20022;-71
2023/04/03 04:48:33;;;;;;;16.27;7.05;;;;;;;;;;5007730;28;20525;-70
2023/04/03 04:50:58;;;;;;;13.30;6.20;;;;;;;;;;5005470;28;20050;-70
2023/04/03 04:53:23;;;;;;;12.13;5.75;;;;;;;;;;5012897;28;20052;-70
2023/04/03 04:55:49;;;;;;;13.90;6.05;;;;;;;;;;5006799;28;20122;-70
2023/04/03 04:58:14;;;;;;;15.55;6.10;;;;;;;;;;5006394;28;20022;-71
2023/04/03 05:00:39;;;;;;;14.13;5.97;;;;;;;;;;5006511;28;20034;-71
2023/04/03 05:03:05;;;;;;;12.25;6.28;;;;;;;;;;5006596;28;20054;-70
2023/04/03 05:05:30;;;;;;;14.98;6.35;;;;;;;;;;4999343;28;20109;-71
2023/04/03 05:07:56;;;;;;;9.40;4.18;;;;;;;;;;5004273;28;20030;-70
2023/04/03 05:10:21;;;;;;;9.68;5.20;;;;;;;;;;5006361;28;20477;-71
2023/04/03 05:12:46;;;;;;;11.20;5.43;;;;;;;;;;5024206;28;20029;-71
2023/04/03 05:15:12;;;;;;;9.95;5.35;;;;;;;;;;5023052;28;20424;-71
2023/04/03 05:17:37;;;;;;;13.80;5.03;;;;;;;;;;5006073;28;20038;-71
2023/04/03 05:20:04;;;;;;;14.32;4.90;;;;;;;;;;5005720;28;20050;-71
2023/04/03 05:22:29;;;;;;;18.75;5.70;;;;;;;;;;5003050;28;20113;-71
2023/04/03 05:24:55;;;;;;;12.50;5.97;;;;;;;;;;5007076;28;20108;-71
2023/04/03 05:27:20;;;;;;;9.57;4.72;;;;;;;;;;5004632;28;20057;-71
2023/04/03 05:29:46;;;;;;;16.50;7.53;;;;;;;;;;4999245;28;20117;-71
2023/04/03 05:32:11;;;;;;;10.32;5.55;;;;;;;;;;5002030;28;20095;-71
2023/04/03 05:34:37;;;;;;;18.45;7.60;;;;;;;;;;5023756;28;20091;-71
2023/04/03 05:37:04;;;;;;;13.45;6.28;;;;;;;;;;5026245;28;20021;-71
2023/04/03 05:39:30;;;;;;;14.65;6.88;;;;;;;;;;5000450;28;20041;-70
2023/04/03 05:41:55;;;;;;;15.23;6.32;;;;;;;;;;5005722;28;20120;-70
2023/04/03 05:44:21;;;;;;;11.98;6.20;;;;;;;;;;5008868;28;20068;-71
2023/04/03 05:46:46;;;;;;;14.73;6.95;;;;;;;;;;5003224;28;20035;-70
2023/04/03 05:49:11;;;;;;;14.57;7.10;;;;;;;;;;5003218;28;20489;-70
2023/04/03 05:51:38;;;;;;;16.17;5.80;;;;;;;;;;4997982;28;20026;-70
2023/04/03 05:54:15;;;;;;;13.00;6.57;;;;;;;;;;4997284;28;20046;-70
2023/04/03 05:56:40;;;;;;;11.95;5.93;;;;;;;;;;4999855;28;20446;-71
2023/04/03 05:59:07;;;;;;;18.65;8.38;;;;;;;;;;4997830;28;20036;-70
2023/04/03 06:01:33;;;;;;;18.58;8.82;;;;;;;;;;4999836;28;20030;-70
2023/04/03 06:03:59;;;;;;;18.33;7.07;;;;;;;;;;5002479;28;20073;-70
2023/04/03 06:06:24;;;;;;;15.82;7.35;;;;;;;;;;5001675;28;20754;-70
2023/04/03 06:08:50;;;;;;;15.18;7.07;;;;;;;;;;5004224;28;20668;-70
2023/04/03 06:11:16;;;;;;;20.42;8.00;;;;;;;;;;5003570;28;20100;-71
2023/04/03 06:13:41;;;;;;;13.75;5.88;;;;;;;;;;4996418;28;20068;-70
2023/04/03 06:16:11;;;;;;;16.90;5.88;;;;;;;;;;5003290;28;20053;-70
2023/04/03 06:18:37;;;;;;;11.73;4.93;;;;;;;;;;4991351;28;20026;-69
2023/04/03 06:21:03;;;;;;;17.63;6.80;;;;;;;;;;4995089;28;20044;-69
2023/04/03 06:23:28;;;;;;;14.43;6.22;;;;;;;;;;5000705;28;20705;-69
2023/04/03 06:25:54;;;;;;;16.63;6.80;;;;;;;;;;4998714;28;20044;-69
2023/04/03 06:28:20;;;;;;;18.73;9.52;;;;;;;;;;4999001;28;20028;-69
2023/04/03 06:30:45;;;;;;;14.98;6.03;;;;;;;;;;5000332;28;20083;-69
2023/04/03 06:33:11;;;;;;;13.77;6.25;;;;;;;;;;4997641;28;20029;-69
2023/04/03 06:35:38;;;;;;;9.82;5.22;;;;;;;;;;4993121;28;20339;-69
2023/04/03 06:38:09;;;;;;;17.05;6.40;;;;;;;;;;4992729;28;20036;-69
2023/04/03 06:40:34;;;;;;;17.83;8.02;;;;;;;;;;5002610;28;20021;-69
2023/04/03 06:43:00;;;;;;;14.80;7.25;;;;;;;;;;5003727;28;20294;-69
2023/04/03 06:45:25;;;;;;;13.13;6.63;;;;;;;;;;4987955;28;20545;-69
2023/04/03 06:47:51;;;;;;;14.75;7.07;;;;;;;;;;4982139;28;20030;-69
2023/04/03 06:50:16;;;;;;;15.43;6.63;;;;;;;;;;4983611;28;20589;-69
2023/04/03 06:52:42;;;;;;;13.07;6.50;;;;;;;;;;4995393;28;20038;-69
2023/04/03 06:55:09;;;;;;;14.40;6.75;;;;;;;;;;5000093;28;20030;-69
2023/04/03 06:57:34;;;;;;;16.63;6.65;;;;;;;;;;5009845;28;20164;-69
2023/04/03 07:00:00;;;;;;;15.48;7.40;;;;;;;;;;4998832;28;20124;-69
2023/04/03 07:02:26;;;;;;;19.92;7.32;;;;;;;;;;4998814;28;20045;-70
2023/04/03 07:04:51;;;;;;;13.30;7.43;;;;;;;;;;4995867;28;20120;-70
2023/04/03 07:07:17;;;;;;;12.07;5.43;;;;;;;;;;4990327;28;20597;-69
2023/04/03 07:09:43;;;;;;;13.60;6.60;;;;;;;;;;4999073;28;20041;-69
2023/04/03 07:12:08;;;;;;;15.05;6.10;;;;;;;;;;4996071;28;20038;-69
2023/04/03 07:14:33;;;;;;;12.32;6.30;;;;;;;;;;5008348;28;20478;-70
2023/04/03 07:16:59;;;;;;;11.73;5.40;;;;;;;;;;5002106;28;20496;-70
2023/04/03 07:19:27;;;;;;;11.15;5.30;;;;;;;;;;4995977;28;20018;-70
2023/04/03 07:21:52;;;;;;;11.93;5.45;;;;;;;;;;4995301;28;20037;-69
2023/04/03 07:24:17;;;;;;;13.77;5.68;;;;;;;;;;5007041;28;20038;-70
2023/04/03 07:26:44;;;;;;;9.95;5.13;;;;;;;;;;5006564;28;20041;-70
2023/04/03 07:29:10;;;;;;;13.00;6.65;;;;;;;;;;5007683;28;20029;-70
2023/04/03 07:31:35;;;;;;;11.75;5.75;;;;;;;;;;5002387;28;20052;-70
2023/04/03 07:34:01;;;;;;;11.48;5.50;;;;;;;;;;4989023;28;20110;-69
2023/04/03 07:36:27;;;;;;;12.27;5.32;;;;;;;;;;4988362;28;20042;-70
2023/04/03 07:38:52;;;;;;;9.25;5.40;;;;;;;;;;4991721;28;20548;-70
2023/04/03 07:41:22;;;;;;;10.90;5.03;;;;;;;;;;5026610;28;20420;-70
2023/04/03 07:43:49;;;;;;;10.10;6.00;;;;;;;;;;5014745;28;20587;-70
2023/04/03 07:46:15;;;;;;;14.35;5.85;;;;;;;;;;5000767;28;20071;-70
2023/04/03 07:48:40;;;;;;;13.63;5.90;;;;;;;;;;5003799;28;20704;-70
2023/04/03 07:51:06;;;;;;;16.42;7.68;;;;;;;;;;5005752;28;20080;-70
2023/04/03 07:53:31;;;;;;;14.65;7.22;;;;;;;;;;5007356;28;20560;-70
2023/04/03 07:55:58;;;;;;;11.18;6.05;;;;;;;;;;5006778;28;20268;-70
2023/04/03 07:58:23;;;;;;;15.63;5.53;;;;;;;;;;5007695;28;20021;-70
2023/04/03 08:00:49;;;;;;;14.43;6.63;;;;;;;;;;5007181;28;20394;-70
2023/04/03 08:03:16;;;;;;;19.33;6.88;;;;;;;;;;5006763;28;20068;-70
2023/04/03 08:05:42;;;;;;;16.95;6.95;;;;;;;;;;5005863;28;20062;-70
2023/04/03 08:08:11;;;;;;;15.95;7.18;;;;;;;;;;5006825;28;20030;-70
2023/04/03 08:10:36;;;;;;;14.68;6.72;;;;;;;;;;5003740;28;20421;-70
2023/04/03 08:13:02;;;;;;;15.05;7.13;;;;;;;;;;5006169;28;20021;-70
2023/04/03 08:15:29;;;;;;;14.38;7.13;;;;;;;;;;5005155;28;20542;-69
2023/04/03 08:17:55;;;;;;;16.80;6.95;;;;;;;;;;5001955;28;20041;-69
2023/04/03 08:20:20;;;;;;;14.02;6.68;;;;;;;;;;5006236;28;20083;-70
2023/04/03 08:22:46;;;;;;;10.23;5.40;;;;;;;;;;5004881;28;20062;-70
2023/04/03 08:25:11;;;;;;;17.08;7.80;;;;;;;;;;5020831;28;20025;-69
2023/04/03 08:27:37;;;;;;;16.20;6.90;;;;;;;;;;5005008;28;20329;-69
2023/04/03 08:30:03;;;;;;;15.77;7.57;;;;;;;;;;5008612;28;20053;-69
2023/04/03 08:32:29;;;;;;;11.48;5.72;;;;;;;;;;5003259;28;20551;-69
2023/04/03 08:34:54;;;;;;;16.67;6.78;;;;;;;;;;5003997;28;20046;-69
2023/04/03 08:37:20;;;;;;;10.70;5.88;;;;;;;;;;4999523;28;20026;-69
2023/04/03 08:39:45;;;;;;;13.82;6.80;;;;;;;;;;5005039;28;20604;-70
2023/04/03 08:42:39;;;;;;;16.63;6.60;;;;;;;;;;4998669;28;20046;-70
2023/04/03 08:45:14;;;;;;;11.02;5.47;;;;;;;;;;4989734;28;20034;-70
2023/04/03 08:47:57;;;;;;;10.65;5.95;;;;;;;;;;4998288;28;20053;-70
2023/04/03 08:50:43;;;;;;;9.75;5.70;;;;;;;;;;4997832;28;20065;-70
2023/04/03 08:53:21;;;;;;;10.60;5.55;;;;;;;;;;5013900;28;20588;-71
2023/04/03 08:55:51;;;;;;;11.02;5.43;;;;;;;;;;5002073;28;20129;-71
2023/04/03 08:58:22;;;;;;;14.20;6.20;;;;;;;;;;5005591;28;20056;-70
2023/04/03 09:01:10;;;;;;;11.95;5.90;;;;;;;;;;5005916;28;20062;-71
2023/04/03 09:03:39;;;;;;;11.35;5.78;;;;;;;;;;5004587;28;20069;-70
2023/04/03 09:06:06;;;;;;;9.38;4.97;;;;;;;;;;5005902;28;20041;-70
2023/04/03 09:08:48;;;;;;;11.15;5.35;;;;;;;;;;4998265;28;20088;-70
2023/04/03 09:11:28;;;;;;;11.90;5.40;;;;;;;;;;4996929;28;20075;-70
2023/04/03 09:14:21;;;;;;;12.45;5.30;;;;;;;;;;4997041;28;20059;-70
2023/04/03 09:17:02;;;;;;;9.20;4.40;;;;;;;;;;5005128;28;20029;-70
2023/04/03 09:19:31;;;;;;;9.23;4.95;;;;;;;;;;5005364;28;20673;-70
2023/04/03 09:22:18;;;;;;;11.25;5.45;;;;;;;;;;5003812;28;20025;-70
2023/04/03 09:24:48;;;;;;;10.38;5.65;;;;;;;;;;5000187;28;20065;-70
2023/04/03 09:27:14;;;;;;;9.23;4.60;;;;;;;;;;5000044;28;20077;-70
2023/04/03 09:29:45;;;;;;;8.32;4.47;;;;;;;;;;4996926;28;20039;-70
2023/04/03 09:32:32;;;;;;;10.00;4.82;;;;;;;;;;4994253;28;20693;-70
2023/04/03 09:35:03;;;;;;;7.30;4.18;;;;;;;;;;5004005;28;20038;-71
2023/04/03 09:37:40;;;;;;;6.88;4.35;;;;;;;;;;4995112;28;20584;-70
2023/04/03 09:40:26;;;;;;;7.95;4.93;;;;;;;;;;4992017;28;20022;-70
2023/04/03 09:42:57;;;;;;;13.68;4.47;;;;;;;;;;5000921;28;20038;-70
2023/04/03 09:45:34;;;;;;;11.85;5.53;;;;;;;;;;4992916;28;20595;-70
2023/04/03 09:48:12;;;;;;;6.95;4.30;;;;;;;;;;5000316;28;20564;-72
2023/04/03 09:50:51;;;;;;;7.75;4.57;;;;;;;;;;5000420;28;20480;-70
2023/04/03 09:53:36;;;;;;;6.75;4.45;;;;;;;;;;5000000;28;20125;-70
2023/04/03 09:56:05;;;;;;;9.65;5.43;;;;;;;;;;4996696;28;20041;-70
2023/04/03 09:58:36;;;;;;;10.07;5.07;;;;;;;;;;5002444;28;20022;-70
2023/04/03 10:01:02;;;;;;;10.02;4.82;;;;;;;;;;4999142;28;20752;-70
2023/04/03 10:03:39;;;;;;;7.25;4.55;;;;;;;;;;5000988;28;20121;-70
2023/04/03 10:06:22;;;;;;;7.75;3.95;;;;;;;;;;5000764;28;20037;-71
2023/04/03 10:09:00;;;;;;;8.68;4.75;;;;;;;;;;4998770;28;20049;-71
2023/04/03 10:11:26;;;;;;;10.82;4.47;;;;;;;;;;4999894;28;20041;-71
2023/04/03 10:14:04;;;;;;;8.77;4.35;;;;;;;;;;4999925;28;20045;-71
2023/04/03 10:16:39;;;;;;;9.13;4.50;;;;;;;;;;5004917;28;20041;-70
2023/04/03 10:19:23;;;;;;;6.82;4.07;;;;;;;;;;5001150;28;20022;-71
2023/04/03 10:21:57;;;;;;;7.10;4.15;;;;;;;;;;5010776;28;20046;-71
2023/04/03 10:24:47;;;;;;;6.93;4.20;;;;;;;;;;5003387;28;20066;-71
2023/04/03 10:27:31;;;;;;;8.23;4.55;;;;;;;;;;4991723;28;20133;-71
2023/04/03 10:30:10;;;;;;;7.70;4.18;;;;;;;;;;4999533;28;20049;-71
2023/04/03 10:33:06;;;;;;;5.85;3.75;;;;;;;;;;5003921;28;20042;-71
2023/04/03 10:35:37;;;;;;;7.20;4.20;;;;;;;;;;4998227;28;20076;-71
2023/04/03 10:38:12;;;;;;;6.57;3.38;;;;;;;;;;4996431;28;20045;-71
2023/04/03 10:41:10;;;;;;;7.68;3.58;;;;;;;;;;4996389;28;20037;-71
2023/04/03 10:43:44;;;;;;;6.05;3.65;;;;;;;;;;4996864;28;20043;-71
2023/04/03 10:46:29;;;;;;;9.75;3.75;;;;;;;;;;4995236;28;20034;-71
2023/04/03 10:49:00;;;;;;;5.70;3.45;;;;;;;;;;4992519;28;20058;-70
2023/04/03 10:51:29;;;;;;;6.20;3.70;;;;;;;;;;5000995;28;20049;-71
2023/04/03 10:54:03;;;;;;;6.30;4.03;;;;;;;;;;5001955;28;20060;-71
2023/04/03 10:56:50;;;;;;;7.07;3.70;;;;;;;;;;4992855;28;20044;-71
2023/04/03 10:59:35;;;;;;;5.18;2.88;;;;;;;;;;4997198;28;20033;-71
2023/04/03 11:02:04;;;;;;;6.18;3.03;;;;;;;;;;4998636;28;20037;-71
2023/04/03 11:04:34;;;;;;;7.00;3.95;;;;;;;;;;5013839;28;20036;-71
2023/04/03 11:07:22;;;;;;;8.32;3.83;;;;;;;;;;4999726;28;20038;-71
2023/04/03 11:09:52;;;;;;;5.43;3.15;;;;;;;;;;4994091;28;20053;-71
2023/04/03 11:12:24;;;;;;;7.63;2.60;;;;;;;;;;4994623;28;20142;-71
2023/04/03 11:14:51;;;;;;;7.13;3.30;;;;;;;;;;4997148;28;20053;-71
2023/04/03 11:17:23;;;;;;;4.88;2.28;;;;;;;;;;5001335;28;20041;-71
2023/04/03 11:19:54;;;;;;;4.30;2.28;;;;;;;;;;4989641;28;20038;-71
2023/04/03 11:22:30;;;;;;;4.88;2.67;;;;;;;;;;5002723;28;20061;-71
2023/04/03 11:25:19;;;;;;;6.68;2.70;;;;;;;;;;4999253;28;20022;-72
2023/04/03 11:27:59;;;;;;;4.65;2.13;;;;;;;;;;4996254;28;20081;-71
2023/04/03 11:30:37;;;;;;;2.20;1.50;;;;;;;;;;5000032;28;20042;-72
2023/04/03 11:33:23;;;;;;;2.88;1.88;;;;;;;;;;4985839;28;20050;-72
2023/04/03 11:35:57;;;;;;;5.50;2.60;;;;;;;;;;4992328;28;20129;-71
2023/04/03 11:38:30;;;;;;;4.97;2.22;;;;;;;;;;4993393;28;20535;-72
2023/04/03 11:40:57;;;;;;;3.25;1.80;;;;;;;;;;4999225;28;20428;-71
2023/04/03 11:43:30;;;;;;;3.97;2.55;;;;;;;;;;5004134;28;20100;-72
2023/04/03 11:45:59;;;;;;;4.87;1.80;;;;;;;;;;5007580;28;20029;-72
2023/04/03 11:48:33;;;;;;;3.67;2.20;;;;;;;;;;5005821;28;20273;-72
2023/04/03 11:51:00;;;;;;;3.72;2.40;;;;;;;;;;4998725;28;20069;-72
2023/04/03 11:53:36;;;;;;;3.83;1.55;;;;;;;;;;4995414;28;20043;-72
2023/04/03 11:56:25;;;;;;;5.53;2.10;;;;;;;;;;5000992;28;20034;-71
2023/04/03 11:59:05;;;;;;;3.83;2.17;;;;;;;;;;5000159;28;20036;-72
2023/04/03 12:01:58;;;;;;;7.55;3.78;;;;;;;;;;5000528;28;20109;-72
2023/04/03 12:04:26;;;;;;;2.33;1.40;;;;;;;;;;4996751;28;20056;-72
2023/04/03 12:07:12;;;;;;;5.05;1.70;;;;;;;;;;5000311;28;20721;-72
2023/04/03 12:09:41;;;;;;;2.75;1.42;;;;;;;;;;5006092;28;20046;-71
2023/04/03 12:12:29;;;;;;;4.95;1.42;;;;;;;;;;5006519;28;20076;-72
2023/04/03 12:14:54;;;;;;;5.05;1.58;;;;;;;;;;4987029;28;20945;-72
2023/04/03 12:17:26;;;;;;;2.70;1.80;;;;;;;;;;4986024;28;20125;-72
2023/04/03 12:19:51;;;;;;;4.72;1.80;;;;;;;;;;4983575;28;20045;-71
2023/04/03 12:22:20;;;;;;;2.70;1.85;;;;;;;;;;4997560;28;20053;-72
2023/04/03 12:24:49;;;;;;;5.43;2.33;;;;;;;;;;4997043;28;20075;-72
2023/04/03 12:27:25;;;;;;;2.90;1.67;;;;;;;;;;5004838;28;20038;-72
2023/04/03 12:29:53;;;;;;;3.42;1.98;;;;;;;;;;5004668;28;20038;-72
2023/04/03 12:32:34;;;;;;;4.03;2.10;;;;;;;;;;4999944;28;20132;-71
2023/04/03 12:35:40;;;;;;;3.53;1.92;;;;;;;;;;5002933;28;20037;-72
2023/04/03 12:38:59;;;;;;;3.00;1.75;;;;;;;;;;5003345;28;20353;-71
2023/04/03 12:41:38;;;;;;;3.53;1.48;;;;;;;;;;4961431;28;20438;-71
2023/04/03 12:44:52;;;;;;;3.05;2.00;;;;;;;;;;5004753;28;20588;-72
2023/04/03 12:47:28;;;;;;;4.85;2.25;;;;;;;;;;4968534;28;20034;-72
2023/04/03 12:49:55;;;;;;;5.35;2.10;;;;;;;;;;5001383;28;20037;-72
2023/04/03 12:52:33;;;;;;;3.63;1.92;;;;;;;;;;5001832;28;20040;-72
2023/04/03 12:55:01;;;;;;;7.03;2.03;;;;;;;;;;5001144;28;20025;-72
2023/04/03 12:57:30;;;;;;;3.15;1.60;;;;;;;;;;5001731;28;20482;-72
2023/04/03 12:59:56;;;;;;;4.63;1.50;;;;;;;;;;4999467;28;20034;-72
2023/04/03 13:02:29;;;;;;;4.38;1.90;;;;;;;;;;4998102;28;20058;-72
2023/04/03 13:04:58;;;;;;;3.85;1.85;;;;;;;;;;5005560;28;20095;-72
2023/04/03 13:07:27;;;;;;;2.67;2.00;;;;;;;;;;5009772;28;20520;-71
2023/04/03 13:10:00;;;;;;;4.63;1.95;;;;;;;;;;5014148;28;20034;-71
2023/04/03 13:12:26;;;;;;;3.38;1.90;;;;;;;;;;5000189;28;20076;-71
2023/04/03 13:14:58;;;;;;;5.53;2.42;;;;;;;;;;5002698;28;20061;-71
2023/04/03 13:17:25;;;;;;;4.82;2.20;;;;;;;;;;5003451;28;20042;-71
2023/04/03 13:19:53;;;;;;;6.40;2.38;;;;;;;;;;4999949;28;20690;-71
2023/04/03 13:22:31;;;;;;;6.95;1.95;;;;;;;;;;5004544;28;20410;-71
2023/04/03 13:25:01;;;;;;;5.85;2.05;;;;;;;;;;5001766;28;20087;-71
2023/04/03 13:27:29;;;;;;;4.75;2.10;;;;;;;;;;4999885;28;20034;-72
2023/04/03 13:29:58;;;;;;;4.65;2.20;;;;;;;;;;5003843;28;20093;-72
2023/04/03 13:32:26;;;;;;;7.32;2.67;;;;;;;;;;4998781;28;20060;-72
2023/04/03 13:34:51;;;;;;;4.88;2.50;;;;;;;;;;5004091;28;20080;-71
2023/04/03 13:37:24;;;;;;;7.97;2.50;;;;;;;;;;5003671;28;20030;-71
2023/04/03 13:40:05;;;;;;;4.00;1.67;;;;;;;;;;5003218;28;20034;-72
2023/04/03 13:42:34;;;;;;;3.28;2.20;;;;;;;;;;5003357;28;20523;-72
2023/04/03 13:45:19;;;;;;;3.10;1.90;;;;;;;;;;5003575;28;20060;-71
2023/04/03 13:47:48;;;;;;;4.18;2.03;;;;;;;;;;5002730;28;20044;-72
2023/04/03 13:50:22;;;;;;;5.47;1.95;;;;;;;;;;5001741;28;20036;-71
2023/04/03 13:52:53;;;;;;;4.80;2.00;;;;;;;;;;4997973;28;20038;-71
2023/04/03 13:55:23;;;;;;;5.03;2.45;;;;;;;;;;4997694;28;20037;-71
2023/04/03 13:57:53;;;;;;;6.55;2.38;;;;;;;;;;4989227;28;20617;-71
2023/04/03 14:00:52;;;;;;;5.80;2.10;;;;;;;;;;4985453;28;20525;-71
2023/04/03 14:03:23;;;;;;;2.25;1.45;;;;;;;;;;4986124;28;20109;-71
2023/04/03 14:05:48;;;;;;;4.22;2.45;;;;;;;;;;4984271;28;20041;-71
2023/04/03 14:08:14;;;;;;;5.50;2.00;;;;;;;;;;4985616;28;20030;-71
2023/04/03 14:10:40;;;;;;;5.25;1.90;;;;;;;;;;4984135;28;20046;-71
2023/04/03 14:13:06;;;;;;;2.65;1.60;;;;;;;;;;4984677;28;20034;-71
2023/04/03 14:15:31;;;;;;;2.55;1.65;;;;;;;;;;4984649;28;20034;-71
2023/04/03 14:17:57;;;;;;;3.92;1.92;;;;;;;;;;4984632;28;20049;-71
2023/04/03 14:20:25;;;;;;;4.20;1.90;;;;;;;;;;5003491;28;20096;-71
2023/04/03 14:22:51;;;;;;;3.88;1.95;;;;;;;;;;5020626;28;20029;-71
2023/04/03 14:25:18;;;;;;;3.83;1.92;;;;;;;;;;5005059;28;20071;-71
2023/04/03 14:27:46;;;;;;;4.80;2.00;;;;;;;;;;5011288;28;20542;-71
2023/04/03 14:30:16;;;;;;;3.08;1.42;;;;;;;;;;5029574;28;20096;-71
2023/04/03 14:32:42;;;;;;;2.55;1.60;;;;;;;;;;5022447;28;20065;-71
2023/04/03 14:35:07;;;;;;;3.58;1.65;;;;;;;;;;5007698;28;20061;-71
2023/04/03 14:37:33;;;;;;;2.67;1.50;;;;;;;;;;5009580;28;20053;-71
2023/04/03 14:40:00;;;;;;;3.38;1.58;;;;;;;;;;5012158;28;20532;-71
2023/04/03 14:42:30;;;;;;;3.38;1.75;;;;;;;;;;5003959;28;20065;-71
2023/04/03 14:44:57;;;;;;;4.13;1.70;;;;;;;;;;5004751;28;20060;-71
2023/04/03 14:47:27;;;;;;;3.63;2.00;;;;;;;;;;5000505;28;20025;-71
2023/04/03 14:49:53;;;;;;;6.00;2.75;;;;;;;;;;4995685;28;20137;-71